This is the latest recevied weather packets stored in our database for station/object KB6HGN. If no packets are shown the sender has not sent any weather packets the latest 10 day(s).
| Time | Temp. | Humidity | Pressure | Rain* | Wind** | Luminosity | Snow |
|---|---|---|---|---|---|---|---|
| 1777755304 | 28.33° C | 37% | 1012.2 hPa | 0 mm | - | 895 W/m² | - |
| 1777754405 | 27.78° C | 39% | 1012.5 hPa | 0 mm | - | 891 W/m² | - |
| 1777753204 | 26.67° C | 37% | 1012.5 hPa | 0 mm | - | 915 W/m² | - |
| 1777750504 | 26.11° C | 44% | 1013.5 hPa | 0 mm | - | 933 W/m² | - |
| 1777747504 | 22.78° C | 51% | 1014.2 hPa | 0 mm | - | 890 W/m² | - |
| 1777746604 | 22.78° C | 52% | 1014.5 hPa | 0 mm | - | 872 W/m² | - |
| 1777746005 | 22.22° C | 56% | 1014.6 hPa | 0 mm | - | 868 W/m² | - |
| 1777745105 | 21.67° C | 56% | 1014.7 hPa | 0 mm | - | 853 W/m² | - |
| 1777743304 | 20.56° C | 59% | 1015.2 hPa | 0 mm | - | 793 W/m² | - |
| 1777738805 | 17.78° C | 72% | 1015.6 hPa | 0 mm | - | 600 W/m² | - |
| 1777737903 | 17.22° C | 75% | 1015.5 hPa | 0 mm | - | 552 W/m² | - |
| 1777737004 | 16.67° C | 79% | 1015.9 hPa | 0 mm | - | 481 W/m² | - |
| 1777736703 | 16.67° C | 81% | 1015.9 hPa | 0 mm | - | 455 W/m² | - |
| 1777736104 | 16.11° C | 82% | 1015.9 hPa | 0 mm | - | 418 W/m² | - |
| 1777734304 | 15.56° C | 86% | 1015.6 hPa | 0 mm | - | 293 W/m² | - |
| 1777731604 | 14.44° C | 87% | 1015.9 hPa | 0 mm | - | 82 W/m² | - |
| 1777731005 | 14.44° C | 87% | 1015.6 hPa | 0 mm | - | 64 W/m² | - |
| 1777727704 | 13.33° C | 86% | 1014.5 hPa | 0 mm | - | 0 W/m² | - |
| 1777720204 | 13.89° C | 82% | 1013.9 hPa | 0 mm | - | 0 W/m² | - |
| 1777718704 | 14.44° C | 82% | 1013.5 hPa | 0 mm | - | 0 W/m² | - |
| 1777717804 | 15° C | 82% | 1013.5 hPa | 0 mm | - | 0 W/m² | - |
| 1777716605 | 15° C | 82% | 1013.5 hPa | 0 mm | - | 0 W/m² | - |
| 1777716004 | 15° C | 80% | 1013.5 hPa | 0 mm | - | 0 W/m² | - |
| 1777714505 | 15° C | 79% | 1013.9 hPa | 0 mm | - | 0 W/m² | - |
| 1777713004 | 15.56° C | 77% | 1013.9 hPa | 0 mm | - | 0 W/m² | - |
* Rain latest hour (hover to see other rain measurements)
** Current wind speed in m/s (hover to see current wind gust speed)